sensor_id;sensor_type;location;lat;lon;timestamp;temperature;humidity
10883;DHT22;5494;51.796;10.952;2023-03-31T00:01:11;11.30;99.90
10883;DHT22;5494;51.796;10.952;2023-03-31T00:03:39;11.40;99.90
10883;DHT22;5494;51.796;10.952;2023-03-31T00:06:11;11.40;99.90
10883;DHT22;5494;51.796;10.952;2023-03-31T00:08:46;11.30;99.90
10883;DHT22;5494;51.796;10.952;2023-03-31T00:11:18;11.20;99.90
10883;DHT22;5494;51.796;10.952;2023-03-31T00:13:47;11.10;99.90
10883;DHT22;5494;51.796;10.952;2023-03-31T00:16:14;11.00;99.90
10883;DHT22;5494;51.796;10.952;2023-03-31T00:18:43;10.90;99.90
10883;DHT22;5494;51.796;10.952;2023-03-31T00:21:15;10.80;99.90
10883;DHT22;5494;51.796;10.952;2023-03-31T00:23:54;10.80;99.90
10883;DHT22;5494;51.796;10.952;2023-03-31T00:26:24;10.60;99.90
10883;DHT22;5494;51.796;10.952;2023-03-31T00:28:53;10.50;99.90
10883;DHT22;5494;51.796;10.952;2023-03-31T00:31:22;10.40;99.90
10883;DHT22;5494;51.796;10.952;2023-03-31T00:33:52;10.40;99.90
10883;DHT22;5494;51.796;10.952;2023-03-31T00:36:21;10.30;99.90
10883;DHT22;5494;51.796;10.952;2023-03-31T00:38:56;10.20;99.90
10883;DHT22;5494;51.796;10.952;2023-03-31T00:41:26;10.20;99.90
10883;DHT22;5494;51.796;10.952;2023-03-31T00:44:01;10.10;99.90
10883;DHT22;5494;51.796;10.952;2023-03-31T00:46:37;10.10;99.90
10883;DHT22;5494;51.796;10.952;2023-03-31T00:49:15;10.10;99.90
10883;DHT22;5494;51.796;10.952;2023-03-31T00:51:50;10.10;99.90
10883;DHT22;5494;51.796;10.952;2023-03-31T00:54:23;10.00;99.90
10883;DHT22;5494;51.796;10.952;2023-03-31T00:56:54;9.90;99.90
10883;DHT22;5494;51.796;10.952;2023-03-31T00:59:32;9.90;99.90
10883;DHT22;5494;51.796;10.952;2023-03-31T01:02:04;9.90;99.90
10883;DHT22;5494;51.796;10.952;2023-03-31T01:04:35;9.80;99.90
10883;DHT22;5494;51.796;10.952;2023-03-31T01:07:12;9.90;99.90
10883;DHT22;5494;51.796;10.952;2023-03-31T01:09:45;9.80;99.90
10883;DHT22;5494;51.796;10.952;2023-03-31T01:12:16;9.80;99.90
10883;DHT22;5494;51.796;10.952;2023-03-31T01:14:45;9.70;99.90
10883;DHT22;5494;51.796;10.952;2023-03-31T01:17:17;9.80;99.90
10883;DHT22;5494;51.796;10.952;2023-03-31T01:19:56;9.90;99.90
10883;DHT22;5494;51.796;10.952;2023-03-31T01:22:57;9.90;99.90
10883;DHT22;5494;51.796;10.952;2023-03-31T01:26:17;9.80;99.90
10883;DHT22;5494;51.796;10.952;2023-03-31T01:29:09;9.70;99.90
10883;DHT22;5494;51.796;10.952;2023-03-31T01:35:19;9.70;99.90
10883;DHT22;5494;51.796;10.952;2023-03-31T01:38:29;9.70;99.90
10883;DHT22;5494;51.796;10.952;2023-03-31T01:41:27;9.60;99.90
10883;DHT22;5494;51.796;10.952;2023-03-31T01:44:10;9.50;99.90
10883;DHT22;5494;51.796;10.952;2023-03-31T01:46:50;9.40;99.90
10883;DHT22;5494;51.796;10.952;2023-03-31T01:49:27;9.40;99.90
10883;DHT22;5494;51.796;10.952;2023-03-31T01:52:09;9.30;99.90
10883;DHT22;5494;51.796;10.952;2023-03-31T01:54:49;9.30;99.90
10883;DHT22;5494;51.796;10.952;2023-03-31T01:57:26;9.30;99.90
10883;DHT22;5494;51.796;10.952;2023-03-31T02:00:05;9.30;99.90
10883;DHT22;5494;51.796;10.952;2023-03-31T02:02:45;9.30;99.90
10883;DHT22;5494;51.796;10.952;2023-03-31T02:05:19;9.40;99.90
10883;DHT22;5494;51.796;10.952;2023-03-31T02:07:54;9.40;99.90
10883;DHT22;5494;51.796;10.952;2023-03-31T02:10:28;9.40;99.90
10883;DHT22;5494;51.796;10.952;2023-03-31T02:13:00;9.50;99.90
10883;DHT22;5494;51.796;10.952;2023-03-31T02:15:34;9.50;99.90
10883;DHT22;5494;51.796;10.952;2023-03-31T02:18:07;9.70;99.90
10883;DHT22;5494;51.796;10.952;2023-03-31T02:20:40;9.70;99.90
10883;DHT22;5494;51.796;10.952;2023-03-31T02:23:13;9.80;99.90
10883;DHT22;5494;51.796;10.952;2023-03-31T02:25:49;9.80;99.90
10883;DHT22;5494;51.796;10.952;2023-03-31T02:28:22;9.90;99.90
10883;DHT22;5494;51.796;10.952;2023-03-31T02:31:04;9.80;99.90
10883;DHT22;5494;51.796;10.952;2023-03-31T02:33:40;9.80;99.90
10883;DHT22;5494;51.796;10.952;2023-03-31T02:36:08;9.70;99.90
10883;DHT22;5494;51.796;10.952;2023-03-31T02:38:41;9.70;99.90
10883;DHT22;5494;51.796;10.952;2023-03-31T02:41:12;9.70;99.90
10883;DHT22;5494;51.796;10.952;2023-03-31T02:43:41;9.70;99.90
10883;DHT22;5494;51.796;10.952;2023-03-31T02:46:09;9.80;99.90
10883;DHT22;5494;51.796;10.952;2023-03-31T02:48:41;9.80;99.90
10883;DHT22;5494;51.796;10.952;2023-03-31T03:01:36;9.80;99.90
10883;DHT22;5494;51.796;10.952;2023-03-31T03:04:29;9.90;99.90
10883;DHT22;5494;51.796;10.952;2023-03-31T03:07:07;9.90;99.90
10883;DHT22;5494;51.796;10.952;2023-03-31T03:09:52;9.90;99.90
10883;DHT22;5494;51.796;10.952;2023-03-31T03:12:32;9.90;99.90
10883;DHT22;5494;51.796;10.952;2023-03-31T03:15:13;9.80;99.90
10883;DHT22;5494;51.796;10.952;2023-03-31T03:17:49;9.70;99.90
10883;DHT22;5494;51.796;10.952;2023-03-31T03:20:19;9.70;99.90
10883;DHT22;5494;51.796;10.952;2023-03-31T03:22:51;9.60;99.90
10883;DHT22;5494;51.796;10.952;2023-03-31T03:25:19;9.60;99.90
10883;DHT22;5494;51.796;10.952;2023-03-31T03:27:47;9.60;99.90
10883;DHT22;5494;51.796;10.952;2023-03-31T03:30:19;9.50;99.90
10883;DHT22;5494;51.796;10.952;2023-03-31T03:32:48;9.60;99.90
10883;DHT22;5494;51.796;10.952;2023-03-31T03:35:16;9.60;99.90
10883;DHT22;5494;51.796;10.952;2023-03-31T03:37:44;9.50;99.90
10883;DHT22;5494;51.796;10.952;2023-03-31T03:40:12;9.50;99.90
10883;DHT22;5494;51.796;10.952;2023-03-31T03:42:40;9.40;99.90
10883;DHT22;5494;51.796;10.952;2023-03-31T03:45:09;9.50;99.90
10883;DHT22;5494;51.796;10.952;2023-03-31T03:47:38;9.50;99.90
10883;DHT22;5494;51.796;10.952;2023-03-31T03:50:08;9.50;99.90
10883;DHT22;5494;51.796;10.952;2023-03-31T03:52:40;9.40;99.90
10883;DHT22;5494;51.796;10.952;2023-03-31T03:55:08;9.40;99.90
10883;DHT22;5494;51.796;10.952;2023-03-31T03:57:37;9.40;99.90
10883;DHT22;5494;51.796;10.952;2023-03-31T04:00:07;9.50;99.90
10883;DHT22;5494;51.796;10.952;2023-03-31T04:02:39;9.60;99.90
10883;DHT22;5494;51.796;10.952;2023-03-31T04:05:08;9.60;99.90
10883;DHT22;5494;51.796;10.952;2023-03-31T04:07:36;9.50;99.90
10883;DHT22;5494;51.796;10.952;2023-03-31T04:10:05;9.60;99.90
10883;DHT22;5494;51.796;10.952;2023-03-31T04:12:34;9.60;99.90
10883;DHT22;5494;51.796;10.952;2023-03-31T04:15:03;9.50;99.90
10883;DHT22;5494;51.796;10.952;2023-03-31T04:17:31;9.40;99.90
10883;DHT22;5494;51.796;10.952;2023-03-31T04:20:03;9.60;99.90
10883;DHT22;5494;51.796;10.952;2023-03-31T04:22:35;9.70;99.90
10883;DHT22;5494;51.796;10.952;2023-03-31T04:25:08;9.80;99.90
10883;DHT22;5494;51.796;10.952;2023-03-31T04:27:42;9.80;99.90
10883;DHT22;5494;51.796;10.952;2023-03-31T04:30:13;9.70;99.90
10883;DHT22;5494;51.796;10.952;2023-03-31T04:32:50;9.60;99.90
10883;DHT22;5494;51.796;10.952;2023-03-31T04:35:21;9.70;99.90
10883;DHT22;5494;51.796;10.952;2023-03-31T04:37:52;9.70;99.90
10883;DHT22;5494;51.796;10.952;2023-03-31T04:40:24;9.80;99.90
10883;DHT22;5494;51.796;10.952;2023-03-31T04:42:52;9.80;99.90
10883;DHT22;5494;51.796;10.952;2023-03-31T04:45:21;9.80;99.90
10883;DHT22;5494;51.796;10.952;2023-03-31T04:47:49;9.80;99.90
10883;DHT22;5494;51.796;10.952;2023-03-31T04:50:17;9.80;99.90
10883;DHT22;5494;51.796;10.952;2023-03-31T04:52:46;9.80;99.90
10883;DHT22;5494;51.796;10.952;2023-03-31T04:55:14;9.80;99.90
10883;DHT22;5494;51.796;10.952;2023-03-31T04:57:43;9.90;99.90
10883;DHT22;5494;51.796;10.952;2023-03-31T05:00:12;9.90;99.90
10883;DHT22;5494;51.796;10.952;2023-03-31T05:02:41;9.90;99.90
10883;DHT22;5494;51.796;10.952;2023-03-31T05:05:09;9.90;99.90
10883;DHT22;5494;51.796;10.952;2023-03-31T05:07:37;10.00;99.90
10883;DHT22;5494;51.796;10.952;2023-03-31T05:10:08;10.10;99.90
10883;DHT22;5494;51.796;10.952;2023-03-31T05:12:37;10.10;99.90
10883;DHT22;5494;51.796;10.952;2023-03-31T05:15:06;10.20;99.90
10883;DHT22;5494;51.796;10.952;2023-03-31T05:17:35;10.20;99.90
10883;DHT22;5494;51.796;10.952;2023-03-31T05:20:04;10.30;99.90
10883;DHT22;5494;51.796;10.952;2023-03-31T05:22:35;10.40;99.90
10883;DHT22;5494;51.796;10.952;2023-03-31T05:25:07;10.50;99.90
10883;DHT22;5494;51.796;10.952;2023-03-31T05:27:37;10.70;99.90
10883;DHT22;5494;51.796;10.952;2023-03-31T05:30:06;10.20;99.90
10883;DHT22;5494;51.796;10.952;2023-03-31T05:32:34;10.90;99.90
10883;DHT22;5494;51.796;10.952;2023-03-31T05:35:03;10.90;99.90
10883;DHT22;5494;51.796;10.952;2023-03-31T05:37:31;10.90;99.90
10883;DHT22;5494;51.796;10.952;2023-03-31T05:39:59;10.90;99.90
10883;DHT22;5494;51.796;10.952;2023-03-31T05:42:29;10.90;99.90
10883;DHT22;5494;51.796;10.952;2023-03-31T05:44:57;10.90;99.90
10883;DHT22;5494;51.796;10.952;2023-03-31T05:47:25;10.80;99.90
10883;DHT22;5494;51.796;10.952;2023-03-31T05:49:53;10.80;99.90
10883;DHT22;5494;51.796;10.952;2023-03-31T05:52:21;10.80;99.90
10883;DHT22;5494;51.796;10.952;2023-03-31T05:54:49;10.80;99.90
10883;DHT22;5494;51.796;10.952;2023-03-31T05:57:17;10.80;99.90
10883;DHT22;5494;51.796;10.952;2023-03-31T05:59:47;10.80;99.90
10883;DHT22;5494;51.796;10.952;2023-03-31T06:02:17;10.80;99.90
10883;DHT22;5494;51.796;10.952;2023-03-31T06:04:45;10.80;99.90
10883;DHT22;5494;51.796;10.952;2023-03-31T06:07:13;10.90;99.90
10883;DHT22;5494;51.796;10.952;2023-03-31T06:09:44;10.90;99.90
10883;DHT22;5494;51.796;10.952;2023-03-31T06:12:12;10.90;99.90
10883;DHT22;5494;51.796;10.952;2023-03-31T06:14:41;10.90;99.90
10883;DHT22;5494;51.796;10.952;2023-03-31T06:17:10;10.80;99.90
10883;DHT22;5494;51.796;10.952;2023-03-31T06:19:38;10.90;99.90
10883;DHT22;5494;51.796;10.952;2023-03-31T06:22:06;11.00;99.90
10883;DHT22;5494;51.796;10.952;2023-03-31T06:24:34;11.00;99.90
10883;DHT22;5494;51.796;10.952;2023-03-31T06:27:02;11.00;99.90
10883;DHT22;5494;51.796;10.952;2023-03-31T06:29:30;11.20;99.90
10883;DHT22;5494;51.796;10.952;2023-03-31T06:31:58;11.20;99.90
10883;DHT22;5494;51.796;10.952;2023-03-31T06:34:29;11.20;99.90
10883;DHT22;5494;51.796;10.952;2023-03-31T06:36:57;11.30;99.90
10883;DHT22;5494;51.796;10.952;2023-03-31T06:39:25;11.30;99.90
10883;DHT22;5494;51.796;10.952;2023-03-31T06:41:54;11.30;99.90
10883;DHT22;5494;51.796;10.952;2023-03-31T06:44:26;11.30;99.90
10883;DHT22;5494;51.796;10.952;2023-03-31T06:46:57;11.30;99.90
10883;DHT22;5494;51.796;10.952;2023-03-31T06:49:25;11.40;99.90
10883;DHT22;5494;51.796;10.952;2023-03-31T06:51:54;11.50;99.90
10883;DHT22;5494;51.796;10.952;2023-03-31T06:54:22;11.50;99.90
10883;DHT22;5494;51.796;10.952;2023-03-31T06:56:50;11.80;99.90
10883;DHT22;5494;51.796;10.952;2023-03-31T06:59:18;11.50;99.90
10883;DHT22;5494;51.796;10.952;2023-03-31T07:01:46;11.50;99.90
10883;DHT22;5494;51.796;10.952;2023-03-31T07:04:16;11.50;99.90
10883;DHT22;5494;51.796;10.952;2023-03-31T07:06:44;11.60;99.90
10883;DHT22;5494;51.796;10.952;2023-03-31T07:09:13;11.60;99.90
10883;DHT22;5494;51.796;10.952;2023-03-31T07:11:41;11.60;99.90
10883;DHT22;5494;51.796;10.952;2023-03-31T07:14:09;11.70;99.90
10883;DHT22;5494;51.796;10.952;2023-03-31T07:16:37;11.80;99.90
10883;DHT22;5494;51.796;10.952;2023-03-31T07:19:06;11.80;99.90
10883;DHT22;5494;51.796;10.952;2023-03-31T07:21:36;11.90;99.90
10883;DHT22;5494;51.796;10.952;2023-03-31T07:24:04;11.90;99.90
10883;DHT22;5494;51.796;10.952;2023-03-31T07:26:34;11.90;99.90
10883;DHT22;5494;51.796;10.952;2023-03-31T07:29:02;11.90;99.90
10883;DHT22;5494;51.796;10.952;2023-03-31T07:31:30;11.90;99.90
10883;DHT22;5494;51.796;10.952;2023-03-31T07:33:58;11.80;99.90
10883;DHT22;5494;51.796;10.952;2023-03-31T07:36:29;11.90;99.90
10883;DHT22;5494;51.796;10.952;2023-03-31T07:38:58;11.90;99.90
10883;DHT22;5494;51.796;10.952;2023-03-31T07:41:26;11.90;99.90
10883;DHT22;5494;51.796;10.952;2023-03-31T07:43:55;11.80;99.90
10883;DHT22;5494;51.796;10.952;2023-03-31T07:46:25;11.80;99.90
10883;DHT22;5494;51.796;10.952;2023-03-31T07:48:55;11.80;99.90
10883;DHT22;5494;51.796;10.952;2023-03-31T07:51:25;11.80;99.90
10883;DHT22;5494;51.796;10.952;2023-03-31T07:53:53;11.80;99.90
10883;DHT22;5494;51.796;10.952;2023-03-31T07:56:23;11.90;99.90
10883;DHT22;5494;51.796;10.952;2023-03-31T07:58:52;11.90;99.90
10883;DHT22;5494;51.796;10.952;2023-03-31T08:01:24;11.90;99.90
10883;DHT22;5494;51.796;10.952;2023-03-31T08:03:55;12.00;99.90
10883;DHT22;5494;51.796;10.952;2023-03-31T08:06:25;12.10;99.90
10883;DHT22;5494;51.796;10.952;2023-03-31T08:08:54;12.20;99.90
10883;DHT22;5494;51.796;10.952;2023-03-31T08:11:23;12.30;99.90
10883;DHT22;5494;51.796;10.952;2023-03-31T08:13:52;12.40;99.90
10883;DHT22;5494;51.796;10.952;2023-03-31T08:16:20;12.40;99.90
10883;DHT22;5494;51.796;10.952;2023-03-31T08:18:49;12.30;99.90
10883;DHT22;5494;51.796;10.952;2023-03-31T08:21:17;12.40;99.90
10883;DHT22;5494;51.796;10.952;2023-03-31T08:23:51;12.40;99.90
10883;DHT22;5494;51.796;10.952;2023-03-31T08:26:20;12.50;99.90
10883;DHT22;5494;51.796;10.952;2023-03-31T08:28:50;12.50;99.90
10883;DHT22;5494;51.796;10.952;2023-03-31T08:31:20;12.40;99.90
10883;DHT22;5494;51.796;10.952;2023-03-31T08:33:53;12.50;99.90
10883;DHT22;5494;51.796;10.952;2023-03-31T08:36:21;12.60;99.90
10883;DHT22;5494;51.796;10.952;2023-03-31T08:38:49;12.70;99.90
10883;DHT22;5494;51.796;10.952;2023-03-31T08:41:33;12.70;99.90
10883;DHT22;5494;51.796;10.952;2023-03-31T08:44:12;12.60;99.90
10883;DHT22;5494;51.796;10.952;2023-03-31T08:46:43;12.50;99.90
10883;DHT22;5494;51.796;10.952;2023-03-31T08:49:15;12.40;99.90
10883;DHT22;5494;51.796;10.952;2023-03-31T08:51:48;12.40;99.90
10883;DHT22;5494;51.796;10.952;2023-03-31T08:54:22;12.40;99.90
10883;DHT22;5494;51.796;10.952;2023-03-31T08:56:59;12.50;99.90
10883;DHT22;5494;51.796;10.952;2023-03-31T08:59:30;12.40;99.90
10883;DHT22;5494;51.796;10.952;2023-03-31T09:02:04;12.40;99.90
10883;DHT22;5494;51.796;10.952;2023-03-31T09:05:00;12.40;99.90
10883;DHT22;5494;51.796;10.952;2023-03-31T09:07:43;12.40;99.90
10883;DHT22;5494;51.796;10.952;2023-03-31T09:10:35;12.50;99.90
10883;DHT22;5494;51.796;10.952;2023-03-31T09:13:25;12.40;99.90
10883;DHT22;5494;51.796;10.952;2023-03-31T09:16:07;12.50;99.90
10883;DHT22;5494;51.796;10.952;2023-03-31T09:18:42;12.60;99.90
10883;DHT22;5494;51.796;10.952;2023-03-31T09:21:18;12.60;99.90
10883;DHT22;5494;51.796;10.952;2023-03-31T09:23:52;12.60;99.90
10883;DHT22;5494;51.796;10.952;2023-03-31T09:26:31;12.70;99.90
10883;DHT22;5494;51.796;10.952;2023-03-31T09:29:06;12.70;99.90
10883;DHT22;5494;51.796;10.952;2023-03-31T09:31:45;12.60;99.90
10883;DHT22;5494;51.796;10.952;2023-03-31T09:34:15;12.60;99.90
10883;DHT22;5494;51.796;10.952;2023-03-31T09:36:51;12.60;99.90
10883;DHT22;5494;51.796;10.952;2023-03-31T09:39:19;12.60;99.90
10883;DHT22;5494;51.796;10.952;2023-03-31T09:41:49;12.70;99.90
10883;DHT22;5494;51.796;10.952;2023-03-31T09:44:25;12.70;99.90
10883;DHT22;5494;51.796;10.952;2023-03-31T09:46:59;12.70;99.90
10883;DHT22;5494;51.796;10.952;2023-03-31T09:49:33;12.70;99.90
10883;DHT22;5494;51.796;10.952;2023-03-31T09:52:08;12.70;99.90
10883;DHT22;5494;51.796;10.952;2023-03-31T09:54:45;12.60;99.90
10883;DHT22;5494;51.796;10.952;2023-03-31T09:57:23;12.60;99.90
10883;DHT22;5494;51.796;10.952;2023-03-31T10:00:02;12.50;99.90
10883;DHT22;5494;51.796;10.952;2023-03-31T10:02:42;12.40;99.90
10883;DHT22;5494;51.796;10.952;2023-03-31T10:05:26;12.40;99.90
10883;DHT22;5494;51.796;10.952;2023-03-31T10:08:20;12.30;99.90
10883;DHT22;5494;51.796;10.952;2023-03-31T10:10:53;12.30;99.90
10883;DHT22;5494;51.796;10.952;2023-03-31T10:13:24;12.30;99.90
10883;DHT22;5494;51.796;10.952;2023-03-31T10:16:01;12.30;99.90
10883;DHT22;5494;51.796;10.952;2023-03-31T10:18:33;12.30;99.90
10883;DHT22;5494;51.796;10.952;2023-03-31T10:21:04;12.20;99.90
10883;DHT22;5494;51.796;10.952;2023-03-31T10:23:35;12.10;99.90
10883;DHT22;5494;51.796;10.952;2023-03-31T10:26:03;11.90;99.90
10883;DHT22;5494;51.796;10.952;2023-03-31T10:28:33;11.80;99.90
10883;DHT22;5494;51.796;10.952;2023-03-31T10:31:03;11.80;99.90
10883;DHT22;5494;51.796;10.952;2023-03-31T10:33:33;11.70;99.90
10883;DHT22;5494;51.796;10.952;2023-03-31T10:36:17;11.70;99.90
10883;DHT22;5494;51.796;10.952;2023-03-31T10:38:51;11.70;99.90
10883;DHT22;5494;51.796;10.952;2023-03-31T10:41:22;11.70;99.90
10883;DHT22;5494;51.796;10.952;2023-03-31T10:43:54;11.50;99.90
10883;DHT22;5494;51.796;10.952;2023-03-31T10:46:39;11.40;99.90
10883;DHT22;5494;51.796;10.952;2023-03-31T10:49:23;11.30;99.90
10883;DHT22;5494;51.796;10.952;2023-03-31T10:51:54;11.30;99.90
10883;DHT22;5494;51.796;10.952;2023-03-31T10:54:26;11.40;99.90
10883;DHT22;5494;51.796;10.952;2023-03-31T10:56:55;11.30;99.90
10883;DHT22;5494;51.796;10.952;2023-03-31T10:59:35;11.30;99.90
10883;DHT22;5494;51.796;10.952;2023-03-31T11:02:38;11.30;99.90
10883;DHT22;5494;51.796;10.952;2023-03-31T11:05:21;11.30;99.90
10883;DHT22;5494;51.796;10.952;2023-03-31T11:08:04;11.30;99.90
10883;DHT22;5494;51.796;10.952;2023-03-31T11:10:59;11.40;99.90
10883;DHT22;5494;51.796;10.952;2023-03-31T11:13:40;11.60;99.90
10883;DHT22;5494;51.796;10.952;2023-03-31T11:16:20;11.70;99.90
10883;DHT22;5494;51.796;10.952;2023-03-31T11:19:07;11.80;99.90
10883;DHT22;5494;51.796;10.952;2023-03-31T11:21:52;11.80;99.90
10883;DHT22;5494;51.796;10.952;2023-03-31T11:24:36;11.90;99.90
10883;DHT22;5494;51.796;10.952;2023-03-31T11:27:32;11.90;99.90
10883;DHT22;5494;51.796;10.952;2023-03-31T11:30:13;11.90;99.90
10883;DHT22;5494;51.796;10.952;2023-03-31T11:33:00;11.90;99.90
10883;DHT22;5494;51.796;10.952;2023-03-31T11:35:50;12.00;99.90
10883;DHT22;5494;51.796;10.952;2023-03-31T11:38:41;11.90;99.90
10883;DHT22;5494;51.796;10.952;2023-03-31T11:41:21;12.00;99.90
10883;DHT22;5494;51.796;10.952;2023-03-31T11:44:00;12.00;99.90
10883;DHT22;5494;51.796;10.952;2023-03-31T11:46:36;12.10;99.90
10883;DHT22;5494;51.796;10.952;2023-03-31T11:49:14;12.10;99.90
10883;DHT22;5494;51.796;10.952;2023-03-31T11:51:50;12.10;99.90
10883;DHT22;5494;51.796;10.952;2023-03-31T11:54:26;12.10;99.90
10883;DHT22;5494;51.796;10.952;2023-03-31T11:57:01;12.20;99.90
10883;DHT22;5494;51.796;10.952;2023-03-31T11:59:36;12.10;99.90
10883;DHT22;5494;51.796;10.952;2023-03-31T12:02:14;12.30;99.90
10883;DHT22;5494;51.796;10.952;2023-03-31T12:04:47;12.30;99.90
10883;DHT22;5494;51.796;10.952;2023-03-31T12:07:23;12.50;99.90
10883;DHT22;5494;51.796;10.952;2023-03-31T12:10:02;12.60;99.90
10883;DHT22;5494;51.796;10.952;2023-03-31T12:12:42;12.60;99.90
10883;DHT22;5494;51.796;10.952;2023-03-31T12:15:18;12.70;99.90
10883;DHT22;5494;51.796;10.952;2023-03-31T12:17:56;12.90;99.90
10883;DHT22;5494;51.796;10.952;2023-03-31T12:20:30;13.10;99.90
10883;DHT22;5494;51.796;10.952;2023-03-31T12:23:05;13.30;99.90
10883;DHT22;5494;51.796;10.952;2023-03-31T12:25:46;13.60;99.90
10883;DHT22;5494;51.796;10.952;2023-03-31T12:28:21;13.70;99.90
10883;DHT22;5494;51.796;10.952;2023-03-31T12:30:54;14.00;99.90
10883;DHT22;5494;51.796;10.952;2023-03-31T12:33:25;14.10;99.90
10883;DHT22;5494;51.796;10.952;2023-03-31T12:36:08;14.40;99.90
10883;DHT22;5494;51.796;10.952;2023-03-31T12:38:51;14.50;99.90
10883;DHT22;5494;51.796;10.952;2023-03-31T12:41:41;14.60;99.90
10883;DHT22;5494;51.796;10.952;2023-03-31T12:44:24;14.70;99.90
10883;DHT22;5494;51.796;10.952;2023-03-31T12:47:19;14.70;99.90
10883;DHT22;5494;51.796;10.952;2023-03-31T12:50:15;14.80;99.90
10883;DHT22;5494;51.796;10.952;2023-03-31T12:52:57;14.80;99.90
10883;DHT22;5494;51.796;10.952;2023-03-31T12:55:35;14.80;99.90
10883;DHT22;5494;51.796;10.952;2023-03-31T12:58:41;15.00;99.90
10883;DHT22;5494;51.796;10.952;2023-03-31T13:01:12;15.00;99.90
10883;DHT22;5494;51.796;10.952;2023-03-31T13:03:49;15.10;99.90
10883;DHT22;5494;51.796;10.952;2023-03-31T13:09:48;15.10;99.90
10883;DHT22;5494;51.796;10.952;2023-03-31T13:12:22;15.00;99.90
10883;DHT22;5494;51.796;10.952;2023-03-31T13:14:56;15.00;99.90
10883;DHT22;5494;51.796;10.952;2023-03-31T13:17:29;14.90;99.90
10883;DHT22;5494;51.796;10.952;2023-03-31T13:20:25;15.00;99.90
10883;DHT22;5494;51.796;10.952;2023-03-31T13:23:00;15.20;99.90
10883;DHT22;5494;51.796;10.952;2023-03-31T13:25:47;15.50;99.90
10883;DHT22;5494;51.796;10.952;2023-03-31T13:28:33;15.70;99.90
10883;DHT22;5494;51.796;10.952;2023-03-31T13:31:05;15.80;99.90
10883;DHT22;5494;51.796;10.952;2023-03-31T13:33:41;15.80;99.90
10883;DHT22;5494;51.796;10.952;2023-03-31T13:36:46;15.70;99.90
10883;DHT22;5494;51.796;10.952;2023-03-31T13:40:04;15.50;99.90
10883;DHT22;5494;51.796;10.952;2023-03-31T13:43:05;15.50;99.90
10883;DHT22;5494;51.796;10.952;2023-03-31T13:46:00;15.70;99.90
10883;DHT22;5494;51.796;10.952;2023-03-31T13:48:50;15.80;99.90
10883;DHT22;5494;51.796;10.952;2023-03-31T13:51:49;15.80;99.90
10883;DHT22;5494;51.796;10.952;2023-03-31T13:54:51;15.80;99.90
10883;DHT22;5494;51.796;10.952;2023-03-31T13:58:18;15.80;99.90
10883;DHT22;5494;51.796;10.952;2023-03-31T14:01:30;15.70;99.90
10883;DHT22;5494;51.796;10.952;2023-03-31T14:04:21;15.70;99.90
10883;DHT22;5494;51.796;10.952;2023-03-31T14:07:14;15.40;99.90
10883;DHT22;5494;51.796;10.952;2023-03-31T14:09:45;15.10;99.90
10883;DHT22;5494;51.796;10.952;2023-03-31T14:12:19;14.80;99.90
10883;DHT22;5494;51.796;10.952;2023-03-31T14:14:52;14.70;99.90
10883;DHT22;5494;51.796;10.952;2023-03-31T14:17:21;14.50;99.90
10883;DHT22;5494;51.796;10.952;2023-03-31T14:20:12;14.20;99.90
10883;DHT22;5494;51.796;10.952;2023-03-31T14:22:58;13.90;99.90
10883;DHT22;5494;51.796;10.952;2023-03-31T14:25:42;13.60;99.90
10883;DHT22;5494;51.796;10.952;2023-03-31T14:28:28;13.30;99.90
10883;DHT22;5494;51.796;10.952;2023-03-31T14:31:12;13.00;99.90
10883;DHT22;5494;51.796;10.952;2023-03-31T14:34:00;12.60;99.90
10883;DHT22;5494;51.796;10.952;2023-03-31T14:36:47;12.40;99.90
10883;DHT22;5494;51.796;10.952;2023-03-31T14:39:27;12.20;99.90
10883;DHT22;5494;51.796;10.952;2023-03-31T14:42:01;12.00;99.90
10883;DHT22;5494;51.796;10.952;2023-03-31T14:44:32;11.90;99.90
10883;DHT22;5494;51.796;10.952;2023-03-31T14:47:01;11.80;99.90
10883;DHT22;5494;51.796;10.952;2023-03-31T14:49:35;11.70;99.90
10883;DHT22;5494;51.796;10.952;2023-03-31T14:52:14;11.40;99.90
10883;DHT22;5494;51.796;10.952;2023-03-31T14:54:46;11.30;99.90
10883;DHT22;5494;51.796;10.952;2023-03-31T14:57:17;11.20;99.90
10883;DHT22;5494;51.796;10.952;2023-03-31T14:59:52;11.00;99.90
10883;DHT22;5494;51.796;10.952;2023-03-31T15:02:29;10.90;99.90
10883;DHT22;5494;51.796;10.952;2023-03-31T15:05:02;10.80;99.90
10883;DHT22;5494;51.796;10.952;2023-03-31T15:07:34;10.70;99.90
10883;DHT22;5494;51.796;10.952;2023-03-31T15:10:05;10.70;99.90
10883;DHT22;5494;51.796;10.952;2023-03-31T15:12:34;10.60;99.90
10883;DHT22;5494;51.796;10.952;2023-03-31T15:15:05;10.60;99.90
10883;DHT22;5494;51.796;10.952;2023-03-31T15:17:36;10.50;99.90
10883;DHT22;5494;51.796;10.952;2023-03-31T15:20:25;10.50;99.90
10883;DHT22;5494;51.796;10.952;2023-03-31T15:22:58;10.40;99.90
10883;DHT22;5494;51.796;10.952;2023-03-31T15:25:32;10.30;99.90
10883;DHT22;5494;51.796;10.952;2023-03-31T15:28:05;10.30;99.90
10883;DHT22;5494;51.796;10.952;2023-03-31T15:30:37;10.20;99.90
10883;DHT22;5494;51.796;10.952;2023-03-31T15:33:17;10.20;99.90
10883;DHT22;5494;51.796;10.952;2023-03-31T15:35:48;10.20;99.90
10883;DHT22;5494;51.796;10.952;2023-03-31T15:38:17;10.20;99.90
10883;DHT22;5494;51.796;10.952;2023-03-31T15:40:49;10.10;99.90
10883;DHT22;5494;51.796;10.952;2023-03-31T15:43:27;10.10;99.90
10883;DHT22;5494;51.796;10.952;2023-03-31T15:45:58;10.00;99.90
10883;DHT22;5494;51.796;10.952;2023-03-31T15:48:28;10.00;99.90
10883;DHT22;5494;51.796;10.952;2023-03-31T15:51:00;10.00;99.90
10883;DHT22;5494;51.796;10.952;2023-03-31T15:53:35;10.00;99.90
10883;DHT22;5494;51.796;10.952;2023-03-31T15:56:06;10.00;99.90
10883;DHT22;5494;51.796;10.952;2023-03-31T15:58:55;10.00;99.90
10883;DHT22;5494;51.796;10.952;2023-03-31T16:01:27;10.00;99.90
10883;DHT22;5494;51.796;10.952;2023-03-31T16:03:59;10.00;99.90
10883;DHT22;5494;51.796;10.952;2023-03-31T16:06:36;10.00;99.90
10883;DHT22;5494;51.796;10.952;2023-03-31T16:09:10;10.00;99.90
10883;DHT22;5494;51.796;10.952;2023-03-31T16:11:45;9.90;99.90
10883;DHT22;5494;51.796;10.952;2023-03-31T16:14:18;9.90;99.90
10883;DHT22;5494;51.796;10.952;2023-03-31T16:16:51;9.90;99.90
10883;DHT22;5494;51.796;10.952;2023-03-31T16:19:25;10.00;99.90
10883;DHT22;5494;51.796;10.952;2023-03-31T16:21:59;10.10;99.90
10883;DHT22;5494;51.796;10.952;2023-03-31T16:24:30;10.10;99.90
10883;DHT22;5494;51.796;10.952;2023-03-31T16:27:05;10.20;99.90
10883;DHT22;5494;51.796;10.952;2023-03-31T16:29:36;10.30;99.90
10883;DHT22;5494;51.796;10.952;2023-03-31T16:32:10;10.40;99.90
10883;DHT22;5494;51.796;10.952;2023-03-31T16:34:54;10.50;99.90
10883;DHT22;5494;51.796;10.952;2023-03-31T16:37:24;10.60;99.90
10883;DHT22;5494;51.796;10.952;2023-03-31T16:39:52;10.60;99.90
10883;DHT22;5494;51.796;10.952;2023-03-31T16:42:22;10.60;99.90